createdAt,value
2023-01-10T15:03:29.983Z,0
2023-01-10T15:04:38.340Z,0
2023-01-10T15:05:46.654Z,0
2023-01-10T15:06:55.203Z,3.2
2023-01-10T15:08:03.565Z,3.2
2023-01-10T15:09:11.927Z,3.2
2023-01-10T15:10:20.470Z,2.7
2023-01-10T15:11:28.827Z,2.7
2023-01-10T15:12:37.213Z,2.7
2023-01-10T15:13:45.718Z,3.1
2023-01-10T15:14:54.072Z,3.1
2023-01-10T15:16:02.453Z,3.1
2023-01-10T15:17:10.979Z,3.7
2023-01-10T15:18:19.332Z,3.7
2023-01-10T15:19:27.702Z,3.7
2023-01-10T15:20:36.234Z,3.4
2023-01-10T15:21:44.588Z,3.4
2023-01-10T15:22:52.941Z,3.4
2023-01-10T15:24:01.507Z,3
2023-01-10T15:25:09.850Z,3
2023-01-10T15:26:18.188Z,3
2023-01-10T15:27:26.800Z,3.6
2023-01-10T15:28:35.128Z,3.6
2023-01-10T15:29:43.910Z,3.6
2023-01-10T15:30:52.035Z,3.3
2023-01-10T15:32:00.374Z,3.3
2023-01-10T15:33:08.733Z,3.3
2023-01-10T15:34:17.305Z,2.7
2023-01-10T15:35:31.473Z,2.7
2023-01-10T15:36:33.984Z,2.7
2023-01-10T15:37:42.538Z,3.2
2023-01-10T15:38:50.912Z,3.2
2023-01-10T15:39:59.264Z,3.2
2023-01-10T15:41:07.807Z,3.3
2023-01-10T15:42:16.158Z,3.3
2023-01-10T15:43:24.524Z,3.3
2023-01-10T15:44:33.070Z,2.9
2023-01-10T15:45:41.435Z,2.9
2023-01-10T15:46:49.815Z,2.9
2023-01-10T15:47:58.340Z,10.2
2023-01-10T15:49:06.694Z,10.2
2023-01-10T15:50:15.020Z,10.2
2023-01-10T15:51:23.605Z,3.8
2023-01-10T15:52:31.943Z,3.8
2023-01-10T15:53:40.307Z,3.8
2023-01-10T15:54:48.857Z,5.5
2023-01-10T15:55:57.214Z,5.5
2023-01-10T15:57:05.559Z,5.5
2023-01-10T15:58:14.117Z,5.5
2023-01-10T15:59:22.501Z,5.5
2023-01-10T16:00:30.962Z,5.5
2023-01-10T16:01:39.694Z,4.8
2023-01-10T16:02:48.351Z,4.8
2023-01-10T16:03:56.565Z,4.8
2023-01-10T16:05:05.129Z,4.3
2023-01-10T16:06:13.514Z,4.3
2023-01-10T16:07:22.080Z,4.3
2023-01-10T16:08:30.525Z,3.2
2023-01-10T16:09:38.901Z,3.2
2023-01-10T16:10:47.255Z,3.2
2023-01-10T16:11:55.804Z,8.1
2023-01-10T16:13:04.193Z,8.1
2023-01-10T16:14:12.542Z,8.1
2023-01-10T16:15:21.135Z,5.3
2023-01-10T16:16:29.563Z,5.3
2023-01-10T16:17:37.903Z,5.3
2023-01-10T16:18:46.470Z,4.8
2023-01-10T16:19:54.866Z,4.8
2023-01-10T16:21:03.253Z,4.8
2023-01-10T16:22:11.817Z,3.6
2023-01-10T16:23:20.207Z,3.6
2023-01-10T16:24:28.555Z,3.6
2023-01-10T16:25:37.091Z,3.3
2023-01-10T16:26:45.436Z,3.3
2023-01-10T16:27:53.847Z,3.3
2023-01-10T16:29:02.457Z,3.9
2023-01-10T16:30:10.854Z,3.9
2023-01-10T16:31:19.329Z,3.9
2023-01-10T16:32:27.943Z,3.7
2023-01-10T16:33:36.299Z,3.7
2023-01-10T16:34:44.648Z,3.7
2023-01-10T16:35:53.204Z,3.4
2023-01-10T16:37:01.567Z,3.4
2023-01-10T16:38:09.959Z,3.4
2023-01-10T16:39:18.536Z,9.5
2023-01-10T16:40:26.843Z,9.5
2023-01-10T16:41:35.227Z,9.5
2023-01-10T16:42:43.765Z,9.7
2023-01-10T16:43:52.111Z,9.7
2023-01-10T16:45:00.559Z,9.7
2023-01-10T16:46:09.118Z,13.4
2023-01-10T16:47:17.449Z,13.4
2023-01-10T16:48:25.827Z,13.4
2023-01-10T16:49:34.406Z,4.1
2023-01-10T16:50:42.723Z,4.1
2023-01-10T16:51:51.092Z,4.1
2023-01-10T16:52:59.658Z,3.8
2023-01-10T16:54:08.043Z,3.8
2023-01-10T16:55:16.415Z,3.8
2023-01-10T16:56:24.948Z,3.7
2023-01-10T16:57:33.308Z,3.7
2023-01-10T16:58:41.705Z,3.7
2023-01-10T16:59:50.276Z,10.2
2023-01-10T17:00:58.745Z,10.2
2023-01-10T17:02:07.268Z,10.2
2023-01-10T17:03:15.709Z,11.1
2023-01-10T17:04:24.185Z,11.1
2023-01-10T17:05:32.406Z,11.1
2023-01-10T17:06:40.985Z,6.8
2023-01-10T17:07:49.377Z,6.8
2023-01-10T17:08:58.474Z,6.8
2023-01-10T17:10:07.026Z,6.2
2023-01-10T17:11:15.414Z,6.2
2023-01-10T17:12:23.729Z,6.2
2023-01-10T17:13:32.443Z,65.300003
2023-01-10T17:14:40.831Z,65.300003
2023-01-10T17:15:49.200Z,65.300003
2023-01-10T17:16:57.743Z,12.2
2023-01-10T17:18:07.071Z,12.2
2023-01-10T17:19:15.485Z,12.2
2023-01-10T17:20:24.128Z,5.7
2023-01-10T17:21:32.555Z,5.7
2023-01-10T17:22:40.929Z,5.7
2023-01-10T17:23:52.479Z,9.3
2023-01-10T17:25:00.876Z,9.3
2023-01-10T17:26:09.237Z,9.3
2023-01-10T17:27:17.810Z,2.9
2023-01-10T17:28:26.211Z,2.9
2023-01-10T17:29:34.585Z,2.9
2023-01-10T17:30:43.162Z,4.5
2023-01-10T17:31:51.611Z,4.5
2023-01-10T17:32:59.904Z,4.5
2023-01-10T17:34:08.454Z,5.8
2023-01-10T17:35:16.800Z,5.8
2023-01-10T17:36:25.163Z,5.8
2023-01-10T17:37:33.730Z,5.1
2023-01-10T17:38:42.104Z,5.1
2023-01-10T17:39:50.465Z,5.1
2023-01-10T17:40:59.374Z,7
2023-01-10T17:42:07.721Z,7
2023-01-10T17:43:16.094Z,7
2023-01-10T17:44:24.665Z,5
2023-01-10T17:45:33.051Z,5
2023-01-10T17:46:41.361Z,5
2023-01-10T17:47:49.963Z,4.8
2023-01-10T17:48:58.343Z,4.8
2023-01-10T17:50:06.687Z,4.8
2023-01-10T17:51:15.248Z,5
2023-01-10T17:52:23.636Z,5
2023-01-10T17:53:31.994Z,5
2023-01-10T17:54:40.564Z,3.6
2023-01-10T17:55:49.034Z,3.6
2023-01-10T17:56:57.404Z,3.6
2023-01-10T17:58:05.972Z,5.4
2023-01-10T17:59:14.436Z,5.4
2023-01-10T18:00:22.757Z,5.4
2023-01-10T18:01:31.405Z,3.8
2023-01-10T18:02:39.735Z,3.8
2023-01-10T18:03:48.093Z,3.8
2023-01-10T18:04:56.681Z,3.9
2023-01-10T18:06:05.684Z,3.9
2023-01-10T18:07:13.439Z,3.9
2023-01-10T18:08:22.046Z,3
2023-01-10T18:09:30.414Z,3
2023-01-10T18:10:38.754Z,3
2023-01-10T18:11:47.312Z,5.7
2023-01-10T18:12:55.652Z,5.7
2023-01-10T18:14:04.004Z,5.7
2023-01-10T18:15:12.593Z,4
2023-01-10T18:16:20.963Z,4
2023-01-10T18:17:29.255Z,4
2023-01-10T18:18:37.822Z,6.2
2023-01-10T18:19:46.232Z,6.2
2023-01-10T18:20:54.622Z,6.2
2023-01-10T18:22:03.206Z,4.8
2023-01-10T18:23:11.554Z,4.8
2023-01-10T18:24:19.903Z,4.8
2023-01-10T18:25:28.440Z,3.9
2023-01-10T18:26:36.822Z,3.9
2023-01-10T18:27:45.140Z,3.9
2023-01-10T18:28:53.697Z,3.6
2023-01-10T18:30:02.055Z,3.6
2023-01-10T18:31:10.483Z,3.6
2023-01-10T18:32:18.947Z,4
2023-01-10T18:33:27.329Z,4
2023-01-10T18:34:35.681Z,4
2023-01-10T18:35:45.991Z,3.8
2023-01-10T18:36:52.570Z,3.8
2023-01-10T18:38:00.921Z,3.8
2023-01-10T18:39:09.481Z,4.1
2023-01-10T18:40:17.833Z,4.1
2023-01-10T18:41:26.165Z,4.1
2023-01-10T18:42:34.736Z,3.8
2023-01-10T18:43:43.060Z,3.8
2023-01-10T18:44:51.407Z,3.8
2023-01-10T18:45:59.990Z,4
2023-01-10T18:47:08.345Z,4
2023-01-10T18:48:16.668Z,4
2023-01-10T18:49:25.222Z,4.4
2023-01-10T18:50:33.587Z,4.4
2023-01-10T18:51:41.927Z,4.4
2023-01-10T18:52:50.496Z,4.5
2023-01-10T18:53:58.833Z,4.5
2023-01-10T18:55:07.173Z,4.5
2023-01-10T18:56:15.731Z,3.7
2023-01-10T18:57:24.076Z,3.7
2023-01-10T18:58:32.423Z,3.7
2023-01-10T18:59:40.977Z,6.3
2023-01-10T19:00:49.362Z,6.3
2023-01-10T19:01:57.688Z,6.3
2023-01-10T19:03:06.293Z,3.6
2023-01-10T19:04:14.585Z,3.6
2023-01-10T19:05:22.928Z,3.6
2023-01-10T19:06:31.492Z,3.1
2023-01-10T19:07:39.843Z,3.1
2023-01-10T19:08:48.192Z,3.1
2023-01-10T19:09:56.766Z,5.2
2023-01-10T19:11:13.699Z,5.2
2023-01-10T19:12:13.454Z,5.2
2023-01-10T19:13:22.014Z,3.5
2023-01-10T19:14:30.366Z,3.5
2023-01-10T19:15:38.739Z,3.5
2023-01-10T19:16:47.242Z,3.5
2023-01-10T19:17:55.617Z,3.5
2023-01-10T19:19:04.000Z,3.5
2023-01-10T19:20:12.514Z,3.7
2023-01-10T19:21:20.864Z,3.7
2023-01-10T19:22:29.199Z,3.7
2023-01-10T19:23:37.784Z,2.8
2023-01-10T19:24:46.126Z,2.8
2023-01-10T19:25:54.496Z,2.8
2023-01-10T19:27:03.041Z,3.9
2023-01-10T19:28:11.393Z,3.9
2023-01-10T19:29:19.740Z,3.9
2023-01-10T19:30:28.299Z,3.1
2023-01-10T19:31:36.671Z,3.1
2023-01-10T19:32:45.016Z,3.1
2023-01-10T19:33:53.589Z,3.4
2023-01-10T19:35:01.941Z,3.4
2023-01-10T19:36:10.263Z,3.4
2023-01-10T19:37:18.814Z,5.2
2023-01-10T19:38:27.201Z,5.2
2023-01-10T19:39:35.548Z,5.2
2023-01-10T19:40:44.104Z,3.2
2023-01-10T19:41:52.453Z,3.2
2023-01-10T19:43:00.793Z,3.2
2023-01-10T19:44:09.383Z,3
2023-01-10T19:45:17.743Z,3
2023-01-10T19:46:26.185Z,3
2023-01-10T19:47:34.691Z,3.3
2023-01-10T19:48:43.049Z,3.3
2023-01-10T19:49:51.403Z,3.3
2023-01-10T19:51:00.008Z,2.7
2023-01-10T19:52:08.309Z,2.7
2023-01-10T19:53:16.663Z,2.7
2023-01-10T19:54:25.235Z,2.8
2023-01-10T19:55:33.582Z,2.8
2023-01-10T19:56:41.934Z,2.8
2023-01-10T19:57:50.509Z,3
2023-01-10T19:58:58.899Z,3
2023-01-10T20:00:07.243Z,3
2023-01-10T20:01:15.888Z,3.6
2023-01-10T20:02:24.175Z,3.6
2023-01-10T20:03:32.513Z,3.6
2023-01-10T20:04:41.051Z,2.8
2023-01-10T20:05:49.403Z,2.8
2023-01-10T20:06:57.878Z,2.8
2023-01-10T20:08:06.325Z,3.3
2023-01-10T20:09:14.689Z,3.3
2023-01-10T20:10:23.011Z,3.3
2023-01-10T20:11:31.579Z,2.9
2023-01-10T20:12:40.001Z,2.9
2023-01-10T20:13:48.437Z,2.9
2023-01-10T20:14:56.893Z,3.1
2023-01-10T20:16:05.324Z,3.1
2023-01-10T20:17:13.604Z,3.1
2023-01-10T20:18:22.171Z,3.5
2023-01-10T20:19:30.518Z,3.5
2023-01-10T20:20:41.376Z,3.5
2023-01-10T20:21:47.417Z,2.8
2023-01-10T20:22:55.814Z,2.8
2023-01-10T20:24:04.173Z,2.8
2023-01-10T20:25:12.702Z,3.4
2023-01-10T20:26:21.039Z,3.4
2023-01-10T20:27:29.388Z,3.4
2023-01-10T20:28:37.950Z,2.9
2023-01-10T20:29:46.331Z,2.9
2023-01-10T20:30:54.721Z,2.9
2023-01-10T20:32:03.252Z,2.9
2023-01-10T20:33:11.596Z,2.9
2023-01-10T20:34:19.926Z,2.9
2023-01-10T20:35:28.492Z,2.6
2023-01-10T20:36:36.860Z,2.6
2023-01-10T20:37:45.220Z,2.6
2023-01-10T20:38:53.800Z,3.1
2023-01-10T20:40:02.133Z,3.1
2023-01-10T20:41:10.479Z,3.1
2023-01-10T20:42:19.050Z,3.6
2023-01-10T20:43:27.394Z,3.6
2023-01-10T20:44:35.744Z,3.6
2023-01-10T20:45:44.337Z,4
2023-01-10T20:46:52.977Z,4
2023-01-10T20:48:01.313Z,4
2023-01-10T20:49:09.863Z,3.1
2023-01-10T20:50:18.335Z,3.1
2023-01-10T20:51:26.880Z,3.1
2023-01-10T20:52:35.427Z,3.5
2023-01-10T20:53:43.800Z,3.5
2023-01-10T20:54:52.175Z,3.5
2023-01-10T20:56:00.702Z,3.1
2023-01-10T20:57:09.086Z,3.1
2023-01-10T20:58:17.467Z,3.1
2023-01-10T20:59:26.232Z,2.7
2023-01-10T21:00:34.365Z,2.7
2023-01-10T21:01:42.753Z,2.7
2023-01-10T21:02:51.314Z,2.5
2023-01-10T21:03:59.641Z,2.5
2023-01-10T21:05:07.975Z,2.5
2023-01-10T21:06:16.546Z,2.5
2023-01-10T21:07:24.902Z,2.5
2023-01-10T21:08:33.284Z,2.5
2023-01-10T21:09:41.845Z,2.6
2023-01-10T21:10:50.225Z,2.6
2023-01-10T21:12:10.528Z,2.6
2023-01-10T21:13:07.111Z,3.5
2023-01-10T21:14:15.488Z,3.5
2023-01-10T21:15:23.824Z,3.5
2023-01-10T21:16:32.380Z,2.8
2023-01-10T21:17:40.741Z,2.8
2023-01-10T21:18:49.105Z,2.8
2023-01-10T21:19:57.651Z,2.6
2023-01-10T21:21:06.019Z,2.6
2023-01-10T21:22:14.355Z,2.6
2023-01-10T21:23:22.930Z,2.4
2023-01-10T21:24:31.286Z,2.4
2023-01-10T21:25:39.653Z,2.4
2023-01-10T21:26:48.252Z,2.5
2023-01-10T21:27:56.598Z,2.5
2023-01-10T21:29:04.992Z,2.5
2023-01-10T21:30:13.539Z,2.7
2023-01-10T21:31:21.967Z,2.7
2023-01-10T21:32:30.260Z,2.7
2023-01-10T21:33:38.821Z,4
2023-01-10T21:34:47.188Z,4
2023-01-10T21:35:55.542Z,4
2023-01-10T21:37:04.100Z,2.7
2023-01-10T21:38:12.473Z,2.7
2023-01-10T21:39:20.824Z,2.7
2023-01-10T21:40:29.376Z,2.6
2023-01-10T21:41:37.716Z,2.6
2023-01-10T21:42:46.119Z,2.6
2023-01-10T21:43:54.630Z,2.3
2023-01-10T21:45:02.981Z,2.3
2023-01-10T21:46:11.378Z,2.3
2023-01-10T21:47:19.999Z,2.5
2023-01-10T21:48:28.387Z,2.5
2023-01-10T21:49:36.779Z,2.5
2023-01-10T21:50:45.382Z,2
2023-01-10T21:51:53.761Z,2
2023-01-10T21:53:02.169Z,2
2023-01-10T21:54:10.742Z,1.7
2023-01-10T21:55:19.173Z,1.7
2023-01-10T21:56:27.471Z,1.7
2023-01-10T21:57:37.175Z,1.8
2023-01-10T21:58:44.406Z,1.8
2023-01-10T21:59:52.773Z,1.8
2023-01-10T22:01:01.350Z,1.5
2023-01-10T22:02:09.727Z,1.5
2023-01-10T22:03:18.101Z,1.5
2023-01-10T22:04:26.694Z,1.5
2023-01-10T22:05:35.035Z,1.5
2023-01-10T22:06:43.463Z,1.5
2023-01-10T22:07:51.994Z,1.8
2023-01-10T22:09:00.343Z,1.8
2023-01-10T22:10:08.696Z,1.8
2023-01-10T22:11:17.283Z,1.7
2023-01-10T22:12:25.688Z,1.7
2023-01-10T22:13:34.051Z,1.7
2023-01-10T22:14:42.919Z,1.9
2023-01-10T22:15:51.079Z,1.9
2023-01-10T22:16:59.420Z,1.9
2023-01-10T22:18:08.033Z,1.9
2023-01-10T22:19:16.375Z,1.9
2023-01-10T22:20:24.744Z,1.9
2023-01-10T22:21:33.366Z,1.4
2023-01-10T22:22:41.731Z,1.4
2023-01-10T22:23:50.097Z,1.4
2023-01-10T22:24:58.662Z,1.6
2023-01-10T22:26:07.104Z,1.6
2023-01-10T22:27:15.498Z,1.6
2023-01-10T22:28:24.063Z,1.3
2023-01-10T22:29:32.444Z,1.3
2023-01-10T22:30:40.890Z,1.3
2023-01-10T22:31:49.565Z,1.5
2023-01-10T22:32:57.858Z,1.5
2023-01-10T22:34:06.244Z,1.5
2023-01-10T22:35:14.835Z,1.5
2023-01-10T22:36:23.157Z,1.5
2023-01-10T22:37:31.571Z,1.5
2023-01-10T22:38:40.151Z,1.6
2023-01-10T22:39:48.787Z,1.6
2023-01-10T22:40:56.875Z,1.6
2023-01-10T22:42:05.444Z,1.5
2023-01-10T22:43:13.836Z,1.5
2023-01-10T22:44:23.003Z,1.5
2023-01-10T22:45:31.634Z,1.4
2023-01-10T22:46:39.996Z,1.4
2023-01-10T22:47:48.322Z,1.4
2023-01-10T22:48:56.932Z,1.5
2023-01-10T22:50:05.314Z,1.5
2023-01-10T22:51:13.680Z,1.5
2023-01-10T22:52:22.224Z,1.5
2023-01-10T22:53:30.594Z,1.5
2023-01-10T22:54:38.968Z,1.5
2023-01-10T22:55:47.529Z,2.4
2023-01-10T22:56:55.897Z,2.4
2023-01-10T22:58:04.242Z,2.4
2023-01-10T22:59:12.837Z,1.6
2023-01-10T23:00:21.190Z,1.6
2023-01-10T23:01:29.569Z,1.6
2023-01-10T23:02:38.275Z,1.7
2023-01-10T23:03:46.613Z,1.7
2023-01-10T23:04:54.942Z,1.7
2023-01-10T23:06:03.494Z,1.6
2023-01-10T23:07:11.844Z,1.6
2023-01-10T23:08:20.189Z,1.6
2023-01-10T23:09:28.773Z,1.8
2023-01-10T23:10:37.099Z,1.8
2023-01-10T23:11:45.469Z,1.8
2023-01-10T23:12:54.024Z,1.8
2023-01-10T23:14:02.381Z,1.8
2023-01-10T23:15:10.771Z,1.8
2023-01-10T23:16:19.418Z,1.8
2023-01-10T23:17:27.760Z,1.8
2023-01-10T23:18:36.248Z,1.8
2023-01-10T23:19:44.709Z,2
2023-01-10T23:20:53.124Z,2
2023-01-10T23:22:01.513Z,2
2023-01-10T23:23:10.141Z,1.8
2023-01-10T23:24:18.518Z,1.8
2023-01-10T23:25:26.934Z,1.8
2023-01-10T23:26:35.430Z,2.4
2023-01-10T23:27:43.848Z,2.4
2023-01-10T23:28:52.213Z,2.4
2023-01-10T23:30:00.752Z,2
2023-01-10T23:31:09.114Z,2
2023-01-10T23:32:17.459Z,2
2023-01-10T23:33:26.036Z,2.4
2023-01-10T23:34:34.404Z,2.4
2023-01-10T23:35:42.730Z,2.4
2023-01-10T23:36:51.302Z,1.8
2023-01-10T23:37:59.682Z,1.8
2023-01-10T23:39:08.048Z,1.8
2023-01-10T23:40:16.614Z,2.1
2023-01-10T23:41:24.978Z,2.1
2023-01-10T23:42:33.330Z,2.1
2023-01-10T23:43:41.948Z,2.2
2023-01-10T23:44:50.312Z,2.2
2023-01-10T23:45:58.754Z,2.2
2023-01-10T23:47:07.331Z,2.4
2023-01-10T23:48:15.749Z,2.4
2023-01-10T23:49:24.063Z,2.4
2023-01-10T23:50:32.714Z,2.6
2023-01-10T23:51:41.042Z,2.6
2023-01-10T23:52:49.563Z,2.6
2023-01-10T23:53:58.123Z,2.3
2023-01-10T23:55:06.482Z,2.3
2023-01-10T23:56:14.851Z,2.3
2023-01-10T23:57:23.415Z,2.7
2023-01-10T23:58:31.784Z,2.7
2023-01-10T23:59:40.134Z,2.7
